sensor_id;sensor_type;location;lat;lon;timestamp;P1;durP1;ratioP1;P2;durP2;ratioP2
24147;SDS011;12309;51.450;-2.624;2023-06-04T00:02:15;11.07;;;2.53;;
24147;SDS011;12309;51.450;-2.624;2023-06-04T00:04:41;11.32;;;3.30;;
24147;SDS011;12309;51.450;-2.624;2023-06-04T00:07:07;7.70;;;3.33;;
24147;SDS011;12309;51.450;-2.624;2023-06-04T00:09:32;14.95;;;3.33;;
24147;SDS011;12309;51.450;-2.624;2023-06-04T00:11:58;8.80;;;3.33;;
24147;SDS011;12309;51.450;-2.624;2023-06-04T00:14:23;10.32;;;2.95;;
24147;SDS011;12309;51.450;-2.624;2023-06-04T00:16:49;11.68;;;3.30;;
24147;SDS011;12309;51.450;-2.624;2023-06-04T00:19:15;10.32;;;3.13;;
24147;SDS011;12309;51.450;-2.624;2023-06-04T00:21:41;12.52;;;3.35;;
24147;SDS011;12309;51.450;-2.624;2023-06-04T00:24:06;9.90;;;3.05;;
24147;SDS011;12309;51.450;-2.624;2023-06-04T00:26:33;10.75;;;3.63;;
24147;SDS011;12309;51.450;-2.624;2023-06-04T00:28:58;12.85;;;3.58;;
24147;SDS011;12309;51.450;-2.624;2023-06-04T00:31:25;13.32;;;3.22;;
24147;SDS011;12309;51.450;-2.624;2023-06-04T00:33:51;10.95;;;3.28;;
24147;SDS011;12309;51.450;-2.624;2023-06-04T00:36:17;10.15;;;3.65;;
24147;SDS011;12309;51.450;-2.624;2023-06-04T00:38:42;11.30;;;3.35;;
24147;SDS011;12309;51.450;-2.624;2023-06-04T00:41:08;9.60;;;3.10;;
24147;SDS011;12309;51.450;-2.624;2023-06-04T00:43:34;11.93;;;3.65;;
24147;SDS011;12309;51.450;-2.624;2023-06-04T00:46:00;10.68;;;3.40;;
24147;SDS011;12309;51.450;-2.624;2023-06-04T00:48:28;13.20;;;3.78;;
24147;SDS011;12309;51.450;-2.624;2023-06-04T00:50:55;9.73;;;3.17;;
24147;SDS011;12309;51.450;-2.624;2023-06-04T00:53:22;13.68;;;3.90;;
24147;SDS011;12309;51.450;-2.624;2023-06-04T00:55:50;11.85;;;3.85;;
24147;SDS011;12309;51.450;-2.624;2023-06-04T00:58:16;9.95;;;3.65;;
24147;SDS011;12309;51.450;-2.624;2023-06-04T01:00:42;17.98;;;4.10;;
24147;SDS011;12309;51.450;-2.624;2023-06-04T01:03:18;13.02;;;3.30;;
24147;SDS011;12309;51.450;-2.624;2023-06-04T01:08:22;14.02;;;3.92;;
24147;SDS011;12309;51.450;-2.624;2023-06-04T01:10:54;12.50;;;4.03;;
24147;SDS011;12309;51.450;-2.624;2023-06-04T01:13:21;10.65;;;3.78;;
24147;SDS011;12309;51.450;-2.624;2023-06-04T01:15:47;12.45;;;3.97;;
24147;SDS011;12309;51.450;-2.624;2023-06-04T01:18:19;11.45;;;3.47;;
24147;SDS011;12309;51.450;-2.624;2023-06-04T01:20:56;16.10;;;3.60;;
24147;SDS011;12309;51.450;-2.624;2023-06-04T01:23:25;11.82;;;3.28;;
24147;SDS011;12309;51.450;-2.624;2023-06-04T01:26:02;10.45;;;3.63;;
24147;SDS011;12309;51.450;-2.624;2023-06-04T01:28:29;10.25;;;3.63;;
24147;SDS011;12309;51.450;-2.624;2023-06-04T01:30:57;14.63;;;3.65;;
24147;SDS011;12309;51.450;-2.624;2023-06-04T01:33:25;14.82;;;3.80;;
24147;SDS011;12309;51.450;-2.624;2023-06-04T01:35:51;13.77;;;3.67;;
24147;SDS011;12309;51.450;-2.624;2023-06-04T01:38:16;12.07;;;3.38;;
24147;SDS011;12309;51.450;-2.624;2023-06-04T01:40:43;20.27;;;4.88;;
24147;SDS011;12309;51.450;-2.624;2023-06-04T01:43:08;11.63;;;3.55;;
24147;SDS011;12309;51.450;-2.624;2023-06-04T01:45:35;19.10;;;4.03;;
24147;SDS011;12309;51.450;-2.624;2023-06-04T01:48:02;13.90;;;3.50;;
24147;SDS011;12309;51.450;-2.624;2023-06-04T01:50:28;8.63;;;3.67;;
24147;SDS011;12309;51.450;-2.624;2023-06-04T01:52:55;13.40;;;3.50;;
24147;SDS011;12309;51.450;-2.624;2023-06-04T01:55:21;19.08;;;4.00;;
24147;SDS011;12309;51.450;-2.624;2023-06-04T01:57:47;16.38;;;3.70;;
24147;SDS011;12309;51.450;-2.624;2023-06-04T02:00:13;13.48;;;3.80;;
24147;SDS011;12309;51.450;-2.624;2023-06-04T02:02:43;13.30;;;3.47;;
24147;SDS011;12309;51.450;-2.624;2023-06-04T02:05:13;14.20;;;3.28;;
24147;SDS011;12309;51.450;-2.624;2023-06-04T02:07:39;10.20;;;3.05;;
24147;SDS011;12309;51.450;-2.624;2023-06-04T02:12:36;11.73;;;3.13;;
24147;SDS011;12309;51.450;-2.624;2023-06-04T02:15:07;16.95;;;3.50;;
24147;SDS011;12309;51.450;-2.624;2023-06-04T02:17:35;14.55;;;3.33;;
24147;SDS011;12309;51.450;-2.624;2023-06-04T02:20:07;15.57;;;3.42;;
24147;SDS011;12309;51.450;-2.624;2023-06-04T02:22:34;12.23;;;3.55;;
24147;SDS011;12309;51.450;-2.624;2023-06-04T02:25:00;11.63;;;2.90;;
24147;SDS011;12309;51.450;-2.624;2023-06-04T02:27:26;11.55;;;3.53;;
24147;SDS011;12309;51.450;-2.624;2023-06-04T02:29:51;14.32;;;3.15;;
24147;SDS011;12309;51.450;-2.624;2023-06-04T02:32:17;7.75;;;3.10;;
24147;SDS011;12309;51.450;-2.624;2023-06-04T02:34:43;8.98;;;2.70;;
24147;SDS011;12309;51.450;-2.624;2023-06-04T02:37:09;18.23;;;3.85;;
24147;SDS011;12309;51.450;-2.624;2023-06-04T02:39:35;16.25;;;3.20;;
24147;SDS011;12309;51.450;-2.624;2023-06-04T02:42:00;16.55;;;3.35;;
24147;SDS011;12309;51.450;-2.624;2023-06-04T02:44:26;13.18;;;3.40;;
24147;SDS011;12309;51.450;-2.624;2023-06-04T02:46:54;14.30;;;3.75;;
24147;SDS011;12309;51.450;-2.624;2023-06-04T02:49:20;18.53;;;3.67;;
24147;SDS011;12309;51.450;-2.624;2023-06-04T02:51:46;12.48;;;2.97;;
24147;SDS011;12309;51.450;-2.624;2023-06-04T02:54:12;15.20;;;3.47;;
24147;SDS011;12309;51.450;-2.624;2023-06-04T02:56:37;9.98;;;3.42;;
24147;SDS011;12309;51.450;-2.624;2023-06-04T02:59:03;18.52;;;3.25;;
24147;SDS011;12309;51.450;-2.624;2023-06-04T03:01:30;14.82;;;3.50;;
24147;SDS011;12309;51.450;-2.624;2023-06-04T03:03:56;15.07;;;3.10;;
24147;SDS011;12309;51.450;-2.624;2023-06-04T03:06:28;15.57;;;3.17;;
24147;SDS011;12309;51.450;-2.624;2023-06-04T03:08:54;13.05;;;2.90;;
24147;SDS011;12309;51.450;-2.624;2023-06-04T03:11:20;12.23;;;3.40;;
24147;SDS011;12309;51.450;-2.624;2023-06-04T03:13:47;14.93;;;3.58;;
24147;SDS011;12309;51.450;-2.624;2023-06-04T03:16:13;14.90;;;3.15;;
24147;SDS011;12309;51.450;-2.624;2023-06-04T03:18:39;15.65;;;3.00;;
24147;SDS011;12309;51.450;-2.624;2023-06-04T03:21:06;9.45;;;2.85;;
24147;SDS011;12309;51.450;-2.624;2023-06-04T03:23:32;10.87;;;2.83;;
24147;SDS011;12309;51.450;-2.624;2023-06-04T03:26:00;15.70;;;3.22;;
24147;SDS011;12309;51.450;-2.624;2023-06-04T03:28:30;14.23;;;3.05;;
24147;SDS011;12309;51.450;-2.624;2023-06-04T03:30:56;11.23;;;2.60;;
24147;SDS011;12309;51.450;-2.624;2023-06-04T03:33:21;12.63;;;3.07;;
24147;SDS011;12309;51.450;-2.624;2023-06-04T03:35:47;10.75;;;2.78;;
24147;SDS011;12309;51.450;-2.624;2023-06-04T03:38:13;9.33;;;2.53;;
24147;SDS011;12309;51.450;-2.624;2023-06-04T03:40:40;12.97;;;3.17;;
24147;SDS011;12309;51.450;-2.624;2023-06-04T03:43:05;14.13;;;2.70;;
24147;SDS011;12309;51.450;-2.624;2023-06-04T03:45:31;11.67;;;3.43;;
24147;SDS011;12309;51.450;-2.624;2023-06-04T03:47:57;16.35;;;3.80;;
24147;SDS011;12309;51.450;-2.624;2023-06-04T03:50:22;14.20;;;2.97;;
24147;SDS011;12309;51.450;-2.624;2023-06-04T03:52:48;12.95;;;3.08;;
24147;SDS011;12309;51.450;-2.624;2023-06-04T03:55:15;10.93;;;2.30;;
24147;SDS011;12309;51.450;-2.624;2023-06-04T03:57:40;11.50;;;3.07;;
24147;SDS011;12309;51.450;-2.624;2023-06-04T04:00:07;15.90;;;3.10;;
24147;SDS011;12309;51.450;-2.624;2023-06-04T04:02:37;13.03;;;3.20;;
24147;SDS011;12309;51.450;-2.624;2023-06-04T04:05:03;11.70;;;3.43;;
24147;SDS011;12309;51.450;-2.624;2023-06-04T04:07:29;13.77;;;2.77;;
24147;SDS011;12309;51.450;-2.624;2023-06-04T04:09:54;11.40;;;2.93;;
24147;SDS011;12309;51.450;-2.624;2023-06-04T04:12:20;11.97;;;3.13;;
24147;SDS011;12309;51.450;-2.624;2023-06-04T04:14:46;13.50;;;2.70;;
24147;SDS011;12309;51.450;-2.624;2023-06-04T04:17:12;14.70;;;3.40;;
24147;SDS011;12309;51.450;-2.624;2023-06-04T04:19:38;12.93;;;2.90;;
24147;SDS011;12309;51.450;-2.624;2023-06-04T04:22:04;8.63;;;2.90;;
24147;SDS011;12309;51.450;-2.624;2023-06-04T04:24:31;13.63;;;2.87;;
24147;SDS011;12309;51.450;-2.624;2023-06-04T04:27:00;14.80;;;3.63;;
24147;SDS011;12309;51.450;-2.624;2023-06-04T04:29:28;10.27;;;2.57;;
24147;SDS011;12309;51.450;-2.624;2023-06-04T04:31:57;12.23;;;3.20;;
24147;SDS011;12309;51.450;-2.624;2023-06-04T04:34:25;8.80;;;3.17;;
24147;SDS011;12309;51.450;-2.624;2023-06-04T04:36:51;10.97;;;3.00;;
24147;SDS011;12309;51.450;-2.624;2023-06-04T04:39:23;12.10;;;3.10;;
24147;SDS011;12309;51.450;-2.624;2023-06-04T04:41:50;6.70;;;2.83;;
24147;SDS011;12309;51.450;-2.624;2023-06-04T04:44:16;7.10;;;2.93;;
24147;SDS011;12309;51.450;-2.624;2023-06-04T04:46:41;12.17;;;3.20;;
24147;SDS011;12309;51.450;-2.624;2023-06-04T04:49:07;9.10;;;3.10;;
24147;SDS011;12309;51.450;-2.624;2023-06-04T04:51:33;13.97;;;3.60;;
24147;SDS011;12309;51.450;-2.624;2023-06-04T04:53:59;12.33;;;3.40;;
24147;SDS011;12309;51.450;-2.624;2023-06-04T04:56:28;9.83;;;2.90;;
24147;SDS011;12309;51.450;-2.624;2023-06-04T04:58:56;7.07;;;2.80;;
24147;SDS011;12309;51.450;-2.624;2023-06-04T05:01:22;10.23;;;3.07;;
24147;SDS011;12309;51.450;-2.624;2023-06-04T05:03:49;8.03;;;2.80;;
24147;SDS011;12309;51.450;-2.624;2023-06-04T05:06:14;7.80;;;2.97;;
24147;SDS011;12309;51.450;-2.624;2023-06-04T05:08:40;13.33;;;3.13;;
24147;SDS011;12309;51.450;-2.624;2023-06-04T05:11:07;11.37;;;3.30;;
24147;SDS011;12309;51.450;-2.624;2023-06-04T05:13:32;7.83;;;2.90;;
24147;SDS011;12309;51.450;-2.624;2023-06-04T05:15:58;12.03;;;3.23;;
24147;SDS011;12309;51.450;-2.624;2023-06-04T05:18:24;15.10;;;3.20;;
24147;SDS011;12309;51.450;-2.624;2023-06-04T05:20:53;13.40;;;3.50;;
24147;SDS011;12309;51.450;-2.624;2023-06-04T05:23:20;9.93;;;3.70;;
24147;SDS011;12309;51.450;-2.624;2023-06-04T05:25:45;11.03;;;3.30;;
24147;SDS011;12309;51.450;-2.624;2023-06-04T05:28:14;7.10;;;2.70;;
24147;SDS011;12309;51.450;-2.624;2023-06-04T05:30:40;16.67;;;3.23;;
24147;SDS011;12309;51.450;-2.624;2023-06-04T05:33:06;8.33;;;2.87;;
24147;SDS011;12309;51.450;-2.624;2023-06-04T05:35:36;10.77;;;2.90;;
24147;SDS011;12309;51.450;-2.624;2023-06-04T05:38:06;14.67;;;2.90;;
24147;SDS011;12309;51.450;-2.624;2023-06-04T05:40:31;7.17;;;2.53;;
24147;SDS011;12309;51.450;-2.624;2023-06-04T05:42:57;15.10;;;3.27;;
24147;SDS011;12309;51.450;-2.624;2023-06-04T05:45:23;11.87;;;3.00;;
24147;SDS011;12309;51.450;-2.624;2023-06-04T05:47:48;11.17;;;3.37;;
24147;SDS011;12309;51.450;-2.624;2023-06-04T05:50:14;12.47;;;3.53;;
24147;SDS011;12309;51.450;-2.624;2023-06-04T05:52:39;10.33;;;3.20;;
24147;SDS011;12309;51.450;-2.624;2023-06-04T05:55:05;9.73;;;3.17;;
24147;SDS011;12309;51.450;-2.624;2023-06-04T05:57:33;8.90;;;3.07;;
24147;SDS011;12309;51.450;-2.624;2023-06-04T05:59:59;12.13;;;3.50;;
24147;SDS011;12309;51.450;-2.624;2023-06-04T06:02:25;13.67;;;3.20;;
24147;SDS011;12309;51.450;-2.624;2023-06-04T06:04:51;10.33;;;3.60;;
24147;SDS011;12309;51.450;-2.624;2023-06-04T06:07:16;12.90;;;3.50;;
24147;SDS011;12309;51.450;-2.624;2023-06-04T06:09:43;13.87;;;3.80;;
24147;SDS011;12309;51.450;-2.624;2023-06-04T06:12:08;11.97;;;3.50;;
24147;SDS011;12309;51.450;-2.624;2023-06-04T06:14:34;12.67;;;3.40;;
24147;SDS011;12309;51.450;-2.624;2023-06-04T06:17:00;11.00;;;3.35;;
24147;SDS011;12309;51.450;-2.624;2023-06-04T06:19:28;8.40;;;2.97;;
24147;SDS011;12309;51.450;-2.624;2023-06-04T06:21:53;11.27;;;3.83;;
24147;SDS011;12309;51.450;-2.624;2023-06-04T06:24:19;12.77;;;3.70;;
24147;SDS011;12309;51.450;-2.624;2023-06-04T06:26:44;7.80;;;3.40;;
24147;SDS011;12309;51.450;-2.624;2023-06-04T06:29:10;13.33;;;3.80;;
24147;SDS011;12309;51.450;-2.624;2023-06-04T06:31:35;12.73;;;3.85;;
24147;SDS011;12309;51.450;-2.624;2023-06-04T06:34:01;9.20;;;3.23;;
24147;SDS011;12309;51.450;-2.624;2023-06-04T06:36:27;12.33;;;3.80;;
24147;SDS011;12309;51.450;-2.624;2023-06-04T06:38:53;14.00;;;3.87;;
24147;SDS011;12309;51.450;-2.624;2023-06-04T06:41:19;8.93;;;3.90;;
24147;SDS011;12309;51.450;-2.624;2023-06-04T06:43:45;13.32;;;3.55;;
24147;SDS011;12309;51.450;-2.624;2023-06-04T06:46:12;11.50;;;3.40;;
24147;SDS011;12309;51.450;-2.624;2023-06-04T06:48:37;10.13;;;3.22;;
24147;SDS011;12309;51.450;-2.624;2023-06-04T06:51:03;10.27;;;3.77;;
24147;SDS011;12309;51.450;-2.624;2023-06-04T06:53:29;11.57;;;3.80;;
24147;SDS011;12309;51.450;-2.624;2023-06-04T06:55:54;13.25;;;3.63;;
24147;SDS011;12309;51.450;-2.624;2023-06-04T06:58:21;9.00;;;3.55;;
24147;SDS011;12309;51.450;-2.624;2023-06-04T07:00:48;9.65;;;3.40;;
24147;SDS011;12309;51.450;-2.624;2023-06-04T07:03:14;12.85;;;3.70;;
24147;SDS011;12309;51.450;-2.624;2023-06-04T07:05:40;16.98;;;4.05;;
24147;SDS011;12309;51.450;-2.624;2023-06-04T07:08:05;12.70;;;3.97;;
24147;SDS011;12309;51.450;-2.624;2023-06-04T07:10:31;10.27;;;3.43;;
24147;SDS011;12309;51.450;-2.624;2023-06-04T07:12:57;10.27;;;3.30;;
24147;SDS011;12309;51.450;-2.624;2023-06-04T07:15:22;10.35;;;3.60;;
24147;SDS011;12309;51.450;-2.624;2023-06-04T07:17:48;11.52;;;4.05;;
24147;SDS011;12309;51.450;-2.624;2023-06-04T07:20:13;14.57;;;3.70;;
24147;SDS011;12309;51.450;-2.624;2023-06-04T07:22:39;12.05;;;3.78;;
24147;SDS011;12309;51.450;-2.624;2023-06-04T07:25:05;16.38;;;3.45;;
24147;SDS011;12309;51.450;-2.624;2023-06-04T07:27:31;8.55;;;3.40;;
24147;SDS011;12309;51.450;-2.624;2023-06-04T07:29:58;10.38;;;4.00;;
24147;SDS011;12309;51.450;-2.624;2023-06-04T07:32:24;14.60;;;3.78;;
24147;SDS011;12309;51.450;-2.624;2023-06-04T07:34:49;10.50;;;3.38;;
24147;SDS011;12309;51.450;-2.624;2023-06-04T07:37:15;10.88;;;3.40;;
24147;SDS011;12309;51.450;-2.624;2023-06-04T07:39:41;10.48;;;3.20;;
24147;SDS011;12309;51.450;-2.624;2023-06-04T07:42:06;13.15;;;3.90;;
24147;SDS011;12309;51.450;-2.624;2023-06-04T07:44:32;12.70;;;3.47;;
24147;SDS011;12309;51.450;-2.624;2023-06-04T07:46:58;8.10;;;3.20;;
24147;SDS011;12309;51.450;-2.624;2023-06-04T07:49:24;8.02;;;3.30;;
24147;SDS011;12309;51.450;-2.624;2023-06-04T07:51:50;8.35;;;3.10;;
24147;SDS011;12309;51.450;-2.624;2023-06-04T07:54:16;12.50;;;3.63;;
24147;SDS011;12309;51.450;-2.624;2023-06-04T07:56:41;10.35;;;3.25;;
24147;SDS011;12309;51.450;-2.624;2023-06-04T07:59:07;9.43;;;3.20;;
24147;SDS011;12309;51.450;-2.624;2023-06-04T08:01:33;14.82;;;3.33;;
24147;SDS011;12309;51.450;-2.624;2023-06-04T08:03:58;10.02;;;3.35;;
24147;SDS011;12309;51.450;-2.624;2023-06-04T08:06:24;7.68;;;2.92;;
24147;SDS011;12309;51.450;-2.624;2023-06-04T08:08:51;8.45;;;3.08;;
24147;SDS011;12309;51.450;-2.624;2023-06-04T08:11:17;10.70;;;3.05;;
24147;SDS011;12309;51.450;-2.624;2023-06-04T08:13:43;9.90;;;3.10;;
24147;SDS011;12309;51.450;-2.624;2023-06-04T08:16:09;8.90;;;3.35;;
24147;SDS011;12309;51.450;-2.624;2023-06-04T08:18:38;9.23;;;3.00;;
24147;SDS011;12309;51.450;-2.624;2023-06-04T08:21:04;8.30;;;3.15;;
24147;SDS011;12309;51.450;-2.624;2023-06-04T08:23:31;8.63;;;3.00;;
24147;SDS011;12309;51.450;-2.624;2023-06-04T08:25:57;9.48;;;3.22;;
24147;SDS011;12309;51.450;-2.624;2023-06-04T08:28:23;9.35;;;3.15;;
24147;SDS011;12309;51.450;-2.624;2023-06-04T08:30:49;10.27;;;3.05;;
24147;SDS011;12309;51.450;-2.624;2023-06-04T08:33:15;9.45;;;2.90;;
24147;SDS011;12309;51.450;-2.624;2023-06-04T08:35:41;8.80;;;3.10;;
24147;SDS011;12309;51.450;-2.624;2023-06-04T08:38:06;14.07;;;3.30;;
24147;SDS011;12309;51.450;-2.624;2023-06-04T08:40:32;6.63;;;2.90;;
24147;SDS011;12309;51.450;-2.624;2023-06-04T08:42:59;8.38;;;2.90;;
24147;SDS011;12309;51.450;-2.624;2023-06-04T08:45:26;5.93;;;2.70;;
24147;SDS011;12309;51.450;-2.624;2023-06-04T08:47:52;8.85;;;2.95;;
24147;SDS011;12309;51.450;-2.624;2023-06-04T08:50:19;7.13;;;2.28;;
24147;SDS011;12309;51.450;-2.624;2023-06-04T08:52:53;5.40;;;2.60;;
24147;SDS011;12309;51.450;-2.624;2023-06-04T08:55:20;10.38;;;2.85;;
24147;SDS011;12309;51.450;-2.624;2023-06-04T08:57:46;4.82;;;2.30;;
24147;SDS011;12309;51.450;-2.624;2023-06-04T09:00:15;8.70;;;3.15;;
24147;SDS011;12309;51.450;-2.624;2023-06-04T09:02:41;5.60;;;2.05;;
24147;SDS011;12309;51.450;-2.624;2023-06-04T09:05:08;7.65;;;2.83;;
24147;SDS011;12309;51.450;-2.624;2023-06-04T09:07:35;8.20;;;2.65;;
24147;SDS011;12309;51.450;-2.624;2023-06-04T09:10:04;7.50;;;2.50;;
24147;SDS011;12309;51.450;-2.624;2023-06-04T09:12:31;6.82;;;2.20;;
24147;SDS011;12309;51.450;-2.624;2023-06-04T09:14:58;8.88;;;2.45;;
24147;SDS011;12309;51.450;-2.624;2023-06-04T09:17:24;7.55;;;2.58;;
24147;SDS011;12309;51.450;-2.624;2023-06-04T09:19:50;7.15;;;2.47;;
24147;SDS011;12309;51.450;-2.624;2023-06-04T09:22:16;6.68;;;1.95;;
24147;SDS011;12309;51.450;-2.624;2023-06-04T09:24:43;7.68;;;2.28;;
24147;SDS011;12309;51.450;-2.624;2023-06-04T09:27:18;5.13;;;1.98;;
24147;SDS011;12309;51.450;-2.624;2023-06-04T09:29:52;8.90;;;1.95;;
24147;SDS011;12309;51.450;-2.624;2023-06-04T09:32:25;5.72;;;2.50;;
24147;SDS011;12309;51.450;-2.624;2023-06-04T09:34:52;6.97;;;2.10;;
24147;SDS011;12309;51.450;-2.624;2023-06-04T09:37:18;6.10;;;2.00;;
24147;SDS011;12309;51.450;-2.624;2023-06-04T09:39:52;4.45;;;1.65;;
24147;SDS011;12309;51.450;-2.624;2023-06-04T09:42:19;7.03;;;2.10;;
24147;SDS011;12309;51.450;-2.624;2023-06-04T09:44:44;3.83;;;1.75;;
24147;SDS011;12309;51.450;-2.624;2023-06-04T09:47:13;5.63;;;1.70;;
24147;SDS011;12309;51.450;-2.624;2023-06-04T09:49:42;5.47;;;1.85;;
24147;SDS011;12309;51.450;-2.624;2023-06-04T09:52:11;7.18;;;2.05;;
24147;SDS011;12309;51.450;-2.624;2023-06-04T09:54:38;4.50;;;1.73;;
24147;SDS011;12309;51.450;-2.624;2023-06-04T09:57:19;5.82;;;1.80;;
24147;SDS011;12309;51.450;-2.624;2023-06-04T09:59:49;2.83;;;1.15;;
24147;SDS011;12309;51.450;-2.624;2023-06-04T10:02:18;4.32;;;1.70;;
24147;SDS011;12309;51.450;-2.624;2023-06-04T10:04:47;6.15;;;1.95;;
24147;SDS011;12309;51.450;-2.624;2023-06-04T10:07:18;5.68;;;1.90;;
24147;SDS011;12309;51.450;-2.624;2023-06-04T10:09:45;5.22;;;1.70;;
24147;SDS011;12309;51.450;-2.624;2023-06-04T10:12:16;5.43;;;2.15;;
24147;SDS011;12309;51.450;-2.624;2023-06-04T10:14:47;5.47;;;1.52;;
24147;SDS011;12309;51.450;-2.624;2023-06-04T10:17:18;5.13;;;1.73;;
24147;SDS011;12309;51.450;-2.624;2023-06-04T10:19:47;6.05;;;1.70;;
24147;SDS011;12309;51.450;-2.624;2023-06-04T10:22:19;6.30;;;1.88;;
24147;SDS011;12309;51.450;-2.624;2023-06-04T10:24:47;7.30;;;1.83;;
24147;SDS011;12309;51.450;-2.624;2023-06-04T10:27:14;6.80;;;1.70;;
24147;SDS011;12309;51.450;-2.624;2023-06-04T10:29:41;7.32;;;1.55;;
24147;SDS011;12309;51.450;-2.624;2023-06-04T10:32:07;2.75;;;1.40;;
24147;SDS011;12309;51.450;-2.624;2023-06-04T10:34:33;4.72;;;1.52;;
24147;SDS011;12309;51.450;-2.624;2023-06-04T10:37:00;5.32;;;1.70;;
24147;SDS011;12309;51.450;-2.624;2023-06-04T10:39:30;4.75;;;1.55;;
24147;SDS011;12309;51.450;-2.624;2023-06-04T10:42:06;5.47;;;1.88;;
24147;SDS011;12309;51.450;-2.624;2023-06-04T10:44:43;4.38;;;1.50;;
24147;SDS011;12309;51.450;-2.624;2023-06-04T10:47:26;4.30;;;1.45;;
24147;SDS011;12309;51.450;-2.624;2023-06-04T10:49:55;4.75;;;1.70;;
24147;SDS011;12309;51.450;-2.624;2023-06-04T10:52:36;7.25;;;1.70;;
24147;SDS011;12309;51.450;-2.624;2023-06-04T10:55:03;6.45;;;1.58;;
24147;SDS011;12309;51.450;-2.624;2023-06-04T10:57:30;4.78;;;1.80;;
24147;SDS011;12309;51.450;-2.624;2023-06-04T10:59:57;6.57;;;2.15;;
24147;SDS011;12309;51.450;-2.624;2023-06-04T11:02:24;5.70;;;2.05;;
24147;SDS011;12309;51.450;-2.624;2023-06-04T11:05:03;5.93;;;1.90;;
24147;SDS011;12309;51.450;-2.624;2023-06-04T11:07:41;4.50;;;1.60;;
24147;SDS011;12309;51.450;-2.624;2023-06-04T11:10:11;7.05;;;1.67;;
24147;SDS011;12309;51.450;-2.624;2023-06-04T11:12:44;7.30;;;1.65;;
24147;SDS011;12309;51.450;-2.624;2023-06-04T11:15:10;9.32;;;1.45;;
24147;SDS011;12309;51.450;-2.624;2023-06-04T11:17:36;5.68;;;1.52;;
24147;SDS011;12309;51.450;-2.624;2023-06-04T11:20:01;3.38;;;1.60;;
24147;SDS011;12309;51.450;-2.624;2023-06-04T11:22:27;9.23;;;1.88;;
24147;SDS011;12309;51.450;-2.624;2023-06-04T11:24:57;5.22;;;1.60;;
24147;SDS011;12309;51.450;-2.624;2023-06-04T11:27:24;4.32;;;1.50;;
24147;SDS011;12309;51.450;-2.624;2023-06-04T11:29:50;3.00;;;1.30;;
24147;SDS011;12309;51.450;-2.624;2023-06-04T11:32:25;4.68;;;1.30;;
24147;SDS011;12309;51.450;-2.624;2023-06-04T11:34:51;4.45;;;1.55;;
24147;SDS011;12309;51.450;-2.624;2023-06-04T11:37:27;3.83;;;1.40;;
24147;SDS011;12309;51.450;-2.624;2023-06-04T11:39:55;9.27;;;2.55;;
24147;SDS011;12309;51.450;-2.624;2023-06-04T11:42:21;4.25;;;1.75;;
24147;SDS011;12309;51.450;-2.624;2023-06-04T11:44:47;2.97;;;1.55;;
24147;SDS011;12309;51.450;-2.624;2023-06-04T11:47:13;3.70;;;1.30;;
24147;SDS011;12309;51.450;-2.624;2023-06-04T11:49:40;8.55;;;1.75;;
24147;SDS011;12309;51.450;-2.624;2023-06-04T11:52:08;4.93;;;1.50;;
24147;SDS011;12309;51.450;-2.624;2023-06-04T11:54:33;6.60;;;1.40;;
24147;SDS011;12309;51.450;-2.624;2023-06-04T11:57:03;10.40;;;2.08;;
24147;SDS011;12309;51.450;-2.624;2023-06-04T11:59:30;5.15;;;1.65;;
24147;SDS011;12309;51.450;-2.624;2023-06-04T12:01:56;6.05;;;1.80;;
24147;SDS011;12309;51.450;-2.624;2023-06-04T12:04:22;5.90;;;1.70;;
24147;SDS011;12309;51.450;-2.624;2023-06-04T12:06:55;6.07;;;1.65;;
24147;SDS011;12309;51.450;-2.624;2023-06-04T12:09:23;2.58;;;1.30;;
24147;SDS011;12309;51.450;-2.624;2023-06-04T12:11:56;4.05;;;1.50;;
24147;SDS011;12309;51.450;-2.624;2023-06-04T12:14:26;7.18;;;1.90;;
24147;SDS011;12309;51.450;-2.624;2023-06-04T12:16:56;4.43;;;1.63;;
24147;SDS011;12309;51.450;-2.624;2023-06-04T12:19:22;3.33;;;1.60;;
24147;SDS011;12309;51.450;-2.624;2023-06-04T12:22:05;3.55;;;1.52;;
24147;SDS011;12309;51.450;-2.624;2023-06-04T12:24:35;4.65;;;1.88;;
24147;SDS011;12309;51.450;-2.624;2023-06-04T12:27:18;6.13;;;1.80;;
24147;SDS011;12309;51.450;-2.624;2023-06-04T12:29:53;4.15;;;1.67;;
24147;SDS011;12309;51.450;-2.624;2023-06-04T12:32:20;5.38;;;1.60;;
24147;SDS011;12309;51.450;-2.624;2023-06-04T12:34:46;4.10;;;1.73;;
24147;SDS011;12309;51.450;-2.624;2023-06-04T12:37:13;3.63;;;1.45;;
24147;SDS011;12309;51.450;-2.624;2023-06-04T12:39:39;4.03;;;1.65;;
24147;SDS011;12309;51.450;-2.624;2023-06-04T12:42:05;5.78;;;1.58;;
24147;SDS011;12309;51.450;-2.624;2023-06-04T12:44:34;4.57;;;1.30;;
24147;SDS011;12309;51.450;-2.624;2023-06-04T12:47:00;7.10;;;1.95;;
24147;SDS011;12309;51.450;-2.624;2023-06-04T12:49:26;5.50;;;1.83;;
24147;SDS011;12309;51.450;-2.624;2023-06-04T12:51:51;4.35;;;1.42;;
24147;SDS011;12309;51.450;-2.624;2023-06-04T12:54:17;3.97;;;1.40;;
24147;SDS011;12309;51.450;-2.624;2023-06-04T12:56:43;4.72;;;1.70;;
24147;SDS011;12309;51.450;-2.624;2023-06-04T12:59:09;5.03;;;1.50;;
24147;SDS011;12309;51.450;-2.624;2023-06-04T13:01:35;4.60;;;1.50;;
24147;SDS011;12309;51.450;-2.624;2023-06-04T13:04:03;3.63;;;1.45;;
24147;SDS011;12309;51.450;-2.624;2023-06-04T13:06:29;6.57;;;1.85;;
24147;SDS011;12309;51.450;-2.624;2023-06-04T13:08:54;4.72;;;1.80;;
24147;SDS011;12309;51.450;-2.624;2023-06-04T13:11:20;4.28;;;1.70;;
24147;SDS011;12309;51.450;-2.624;2023-06-04T13:13:46;6.63;;;1.70;;
24147;SDS011;12309;51.450;-2.624;2023-06-04T13:16:12;5.25;;;1.80;;
24147;SDS011;12309;51.450;-2.624;2023-06-04T13:18:38;4.07;;;1.77;;
24147;SDS011;12309;51.450;-2.624;2023-06-04T13:21:03;3.78;;;1.67;;
24147;SDS011;12309;51.450;-2.624;2023-06-04T13:23:29;6.55;;;1.50;;
24147;SDS011;12309;51.450;-2.624;2023-06-04T13:25:55;4.30;;;1.40;;
24147;SDS011;12309;51.450;-2.624;2023-06-04T13:28:20;6.85;;;1.60;;
24147;SDS011;12309;51.450;-2.624;2023-06-04T13:30:46;4.60;;;1.67;;
24147;SDS011;12309;51.450;-2.624;2023-06-04T13:33:13;6.97;;;1.73;;
24147;SDS011;12309;51.450;-2.624;2023-06-04T13:35:39;3.83;;;1.52;;
24147;SDS011;12309;51.450;-2.624;2023-06-04T13:38:05;3.75;;;1.40;;
24147;SDS011;12309;51.450;-2.624;2023-06-04T13:40:31;3.88;;;1.67;;
24147;SDS011;12309;51.450;-2.624;2023-06-04T13:42:59;7.20;;;1.80;;
24147;SDS011;12309;51.450;-2.624;2023-06-04T13:45:24;5.55;;;1.58;;
24147;SDS011;12309;51.450;-2.624;2023-06-04T13:47:50;4.10;;;1.75;;
24147;SDS011;12309;51.450;-2.624;2023-06-04T13:50:16;5.35;;;1.67;;
24147;SDS011;12309;51.450;-2.624;2023-06-04T13:52:42;5.15;;;2.05;;
24147;SDS011;12309;51.450;-2.624;2023-06-04T13:55:08;5.28;;;1.92;;
24147;SDS011;12309;51.450;-2.624;2023-06-04T13:57:34;5.28;;;1.60;;
24147;SDS011;12309;51.450;-2.624;2023-06-04T14:00:00;7.13;;;1.65;;
24147;SDS011;12309;51.450;-2.624;2023-06-04T14:02:25;4.15;;;1.60;;
24147;SDS011;12309;51.450;-2.624;2023-06-04T14:04:52;3.70;;;1.70;;
24147;SDS011;12309;51.450;-2.624;2023-06-04T14:07:18;5.72;;;1.70;;
24147;SDS011;12309;51.450;-2.624;2023-06-04T14:09:44;5.05;;;1.73;;
24147;SDS011;12309;51.450;-2.624;2023-06-04T14:12:10;3.45;;;1.70;;
24147;SDS011;12309;51.450;-2.624;2023-06-04T14:14:36;3.38;;;1.80;;
24147;SDS011;12309;51.450;-2.624;2023-06-04T14:17:02;5.70;;;2.00;;
24147;SDS011;12309;51.450;-2.624;2023-06-04T14:19:28;7.70;;;3.15;;
24147;SDS011;12309;51.450;-2.624;2023-06-04T14:21:54;5.60;;;2.65;;
24147;SDS011;12309;51.450;-2.624;2023-06-04T14:24:20;5.93;;;2.33;;
24147;SDS011;12309;51.450;-2.624;2023-06-04T14:26:46;5.93;;;2.42;;
24147;SDS011;12309;51.450;-2.624;2023-06-04T14:29:12;4.82;;;2.00;;
24147;SDS011;12309;51.450;-2.624;2023-06-04T14:31:38;6.22;;;1.70;;
24147;SDS011;12309;51.450;-2.624;2023-06-04T14:34:04;4.70;;;1.50;;